Аэропорт: Сокол. Магадан

ICAO: UHMM

METAR:
2018/05/20 23:00
UHMM 202300Z 27003MPS 9999 SCT040CB 05/00 Q1014 R10/CLRD70 NOSIG RMK QFE746
METAR:
2018/05/20 21:25
TAF UHMM 201950Z 2021/2203 24003G08MPS 9999 SCT030CB BKN070 
      TEMPO 2103/2121 3100 -SHRA BR SCT011 BKN025CB OVC070